Time;durP1;ratioP1;P1;durP2;ratioP2;P2;SDS_P1;SDS_P2;PMS_P1;PMS_P2;Temp;Humidity;BMP_temperature;BMP_pressure;BME280_temperature;BME280_humidity;BME280_pressure;Samples;Min_cycle;Max_cycle;Signal;HPM_P1;HPM_P2
2023/04/17 00:00:05;;;;;;;;;;;12.70;57.40;;;11.31;59.57;101824.94;12255016;19;19978;-82
2023/04/17 00:04:11;;;;;;;;;;;12.80;57.40;;;11.45;59.56;101855.75;12254371;19;19915;-83
2023/04/17 00:08:13;;;;;;;;;;;12.70;57.40;;;11.51;59.52;101860.78;12249167;19;19923;-82
2023/04/17 00:12:15;;;;;;;;;;;12.80;57.50;;;11.56;59.61;101868.41;12251099;19;19985;-82
2023/04/17 00:16:17;;;;;;;;;;;12.80;57.50;;;11.53;59.49;101874.66;12252801;19;19923;-82
2023/04/17 00:20:18;;;;;;;;;;;12.70;57.40;;;11.57;59.38;101873.59;12252033;19;20329;-82
2023/04/17 00:24:19;;;;;;;;;;;12.80;57.50;;;11.43;59.55;101853.22;12252015;19;19978;-82
2023/04/17 00:28:21;;;;;;;;;;;12.80;57.40;;;11.43;59.51;101853.22;12246647;19;20352;-82
2023/04/17 00:32:23;;;;;;;;;;;12.80;57.30;;;11.49;59.51;101873.91;12251418;19;20271;-82
2023/04/17 00:36:26;;;;;;;;;;;12.80;57.40;;;11.41;59.43;101860.28;12249530;19;19919;-83
2023/04/17 00:40:27;;;;;;;;;;;12.70;57.40;;;11.43;59.71;101876.75;12249412;19;19922;-83
2023/04/17 00:44:29;;;;;;;;;;;12.70;57.40;;;11.42;59.51;101875.06;12249361;19;20369;-82
2023/04/17 00:48:32;;;;;;;;;;;12.70;57.30;;;11.30;59.61;101854.63;12246686;19;19915;-83
2023/04/17 00:52:34;;;;;;;;;;;12.70;57.30;;;11.35;59.67;101868.38;12249610;19;19919;-83
2023/04/17 00:56:36;;;;;;;;;;;12.70;57.50;;;11.11;59.67;101836.22;12244119;19;19923;-83
2023/04/17 01:00:38;;;;;;;;;;;12.70;57.40;;;11.40;59.52;101886.50;12248398;19;19949;-82
2023/04/17 01:04:40;;;;;;;;;;;12.60;57.40;;;11.28;59.48;101872.97;12249345;19;19926;-83
2023/04/17 01:08:43;;;;;;;;;;;12.60;57.40;;;11.35;59.53;101885.84;12244973;19;19919;-82
2023/04/17 01:12:47;;;;;;;;;;;12.60;57.30;;;11.30;59.61;101880.78;12250078;19;20353;-82
2023/04/17 01:16:50;;;;;;;;;;;12.60;57.40;;;11.26;59.63;101876.56;12246381;19;20322;-82
2023/04/17 01:20:51;;;;;;;;;;;12.60;57.30;;;11.13;59.50;101857.91;12248180;19;19943;-82
2023/04/17 01:24:53;;;;;;;;;;;12.50;57.40;;;11.16;59.46;101870.88;12248978;19;19932;-82
2023/04/17 01:28:57;;;;;;;;;;;12.50;57.50;;;11.08;59.65;101857.25;12245072;19;19911;-82
2023/04/17 01:33:01;;;;;;;;;;;12.40;57.30;;;11.09;59.52;101872.00;12247440;19;19934;-82
2023/04/17 01:37:04;;;;;;;;;;;12.40;57.30;;;11.14;59.54;101871.84;12244519;19;19919;-82
2023/04/17 01:41:09;;;;;;;;;;;12.40;57.20;;;11.07;59.61;101864.25;12248913;19;19910;-82
2023/04/17 01:45:10;;;;;;;;;;;12.40;57.30;;;11.10;59.51;101878.09;12247004;19;20305;-82
2023/04/17 01:49:12;;;;;;;;;;;12.40;57.20;;;11.14;59.65;101892.75;12244334;19;20660;-82
2023/04/17 01:53:14;;;;;;;;;;;12.40;57.20;;;11.04;59.48;101880.06;12246220;19;19943;-82
2023/04/17 01:57:16;;;;;;;;;;;12.40;57.30;;;11.03;59.68;101882.72;12245205;19;19938;-82
2023/04/17 02:01:18;;;;;;;;;;;12.40;57.20;;;11.02;59.50;101884.47;12247044;19;19907;-82
2023/04/17 02:05:20;;;;;;;;;;;12.30;57.20;;;10.92;59.49;101863.97;12246742;19;19936;-82
2023/04/17 02:09:22;;;;;;;;;;;12.30;57.20;;;10.68;59.64;101834.41;12251645;19;19926;-82
2023/04/17 02:13:23;;;;;;;;;;;12.30;57.10;;;10.96;59.61;101895.16;12259230;19;19919;-82
2023/04/17 02:17:26;;;;;;;;;;;12.20;57.00;;;10.95;59.52;101897.84;12255296;19;19915;-82
2023/04/17 02:21:27;;;;;;;;;;;12.20;57.10;;;10.82;59.67;101879.16;12257312;19;19907;-82
2023/04/17 02:25:29;;;;;;;;;;;12.20;57.10;;;10.91;59.59;101897.13;12256093;19;19933;-82
2023/04/17 02:29:30;;;;;;;;;;;12.20;57.10;;;10.88;59.77;101894.59;12256389;19;19924;-82
2023/04/17 02:33:32;;;;;;;;;;;12.20;57.10;;;10.71;59.69;101863.88;12256551;19;20261;-82
2023/04/17 02:37:33;;;;;;;;;;;12.20;57.10;;;10.91;59.59;101907.56;12253846;19;19911;-82
2023/04/17 02:41:35;;;;;;;;;;;12.20;57.10;;;10.83;59.57;101897.41;12256527;19;20317;-82
2023/04/17 02:45:38;;;;;;;;;;;12.20;57.20;;;10.63;59.58;101869.38;12255284;19;19975;-83
2023/04/17 02:49:40;;;;;;;;;;;12.10;57.00;;;10.71;59.69;101886.53;12256678;19;19915;-82
2023/04/17 02:53:42;;;;;;;;;;;12.10;57.10;;;10.68;59.58;101894.50;12257546;19;19911;-82
2023/04/17 02:57:44;;;;;;;;;;;12.10;56.90;;;10.60;59.57;101887.78;12252950;19;19928;-82
2023/04/17 03:01:45;;;;;;;;;;;12.00;56.90;;;10.61;59.53;101892.13;12256561;19;19926;-82
2023/04/17 03:05:50;;;;;;;;;;;12.00;57.00;;;10.39;59.53;101865.91;12253753;19;19995;-82
2023/04/17 03:09:52;;;;;;;;;;;12.00;56.90;;;10.44;59.56;101876.19;12254635;19;19910;-82
2023/04/17 03:13:54;;;;;;;;;;;12.00;56.80;;;10.59;59.70;101906.13;12254884;19;19911;-82
2023/04/17 03:17:56;;;;;;;;;;;11.90;56.80;;;10.62;59.54;101919.94;12249750;19;19954;-82
2023/04/17 03:21:58;;;;;;;;;;;11.90;56.90;;;10.60;59.56;101921.75;12255010;19;20332;-82
2023/04/17 03:26:00;;;;;;;;;;;11.90;56.70;;;10.56;59.60;101921.91;12251106;19;19924;-82
2023/04/17 03:30:05;;;;;;;;;;;11.80;56.80;;;10.49;59.63;101912.59;12253920;19;19963;-82
2023/04/17 03:34:08;;;;;;;;;;;11.80;56.70;;;10.23;59.46;101885.59;12253959;19;19915;-82
2023/04/17 03:38:10;;;;;;;;;;;11.80;56.60;;;10.40;59.46;101919.84;12250254;19;19919;-82
2023/04/17 03:42:13;;;;;;;;;;;11.80;56.60;;;10.38;59.62;101929.47;12254318;19;19999;-82
2023/04/17 03:46:16;;;;;;;;;;;11.70;56.70;;;10.38;59.54;101939.94;12251396;19;19919;-82
2023/04/17 03:50:17;;;;;;;;;;;11.70;56.70;;;10.39;59.65;101943.38;12253710;19;19947;-82
2023/04/17 03:54:26;;;;;;;;;;;11.70;56.70;;;10.28;59.66;101928.09;12254170;19;19922;-81
2023/04/17 03:58:30;;;;;;;;;;;11.70;56.70;;;10.35;59.57;101957.47;12249432;19;19915;-82
2023/04/17 04:02:31;;;;;;;;;;;11.60;56.60;;;10.25;59.50;101943.00;12254243;19;19911;-82
2023/04/17 04:06:34;;;;;;;;;;;11.60;56.60;;;10.24;59.69;101955.19;12247572;19;19926;-82
2023/04/17 04:10:37;;;;;;;;;;;11.50;56.60;;;10.18;59.56;101958.03;12251786;19;19924;-82
2023/04/17 04:14:39;;;;;;;;;;;11.50;56.60;;;10.06;59.46;101955.81;12250643;19;20690;-82
2023/04/17 04:18:42;;;;;;;;;;;11.40;56.60;;;10.06;59.69;101968.84;12247166;19;20331;-82
2023/04/17 04:22:44;;;;;;;;;;;11.40;56.70;;;10.00;59.73;101956.00;12248611;19;19944;-82
2023/04/17 04:26:48;;;;;;;;;;;11.40;56.70;;;10.00;59.65;101975.13;12248007;19;19921;-82
2023/04/17 04:30:52;;;;;;;;;;;11.30;56.70;;;9.89;59.39;101961.59;12245638;19;20332;-82
2023/04/17 04:34:57;;;;;;;;;;;11.30;56.80;;;9.94;59.54;101981.41;12247445;19;20345;-82
2023/04/17 04:38:59;;;;;;;;;;;11.20;57.20;;;9.89;59.71;101983.31;12245939;19;19926;-82
2023/04/17 04:43:07;;;;;;;;;;;11.20;56.90;;;9.77;59.57;101968.03;12249656;19;20314;-82
2023/04/17 04:47:18;;;;;;;;;;;11.20;56.80;;;9.83;59.62;101983.50;12247407;19;19921;-82
2023/04/17 04:51:21;;;;;;;;;;;11.10;57.00;;;9.63;59.78;101957.19;12246703;19;19927;-82
2023/04/17 04:55:25;;;;;;;;;;;11.10;56.90;;;9.73;59.73;101990.75;12249737;19;19922;-82
2023/04/17 04:59:29;;;;;;;;;;;11.10;56.90;;;9.79;59.64;102001.91;12246717;19;19954;-82
2023/04/17 05:03:51;;;;;;;;;;;11.10;57.00;;;9.71;59.52;102003.00;12248864;19;19929;-82
2023/04/17 05:08:01;;;;;;;;;;;11.00;57.10;;;9.59;59.83;101986.88;12245681;19;19926;-82
2023/04/17 05:12:07;;;;;;;;;;;11.00;57.10;;;9.63;59.63;101988.50;12251349;19;19919;-82
2023/04/17 05:16:09;;;;;;;;;;;11.00;57.20;;;9.12;59.58;101910.97;12245228;19;19919;-82
2023/04/17 05:20:11;;;;;;;;;;;11.10;57.20;;;9.42;59.81;101963.91;12247382;19;20376;-82
2023/04/17 05:24:20;;;;;;;;;;;11.00;57.10;;;9.69;59.65;102007.41;12247108;19;19918;-82
2023/04/17 05:28:26;;;;;;;;;;;11.00;57.20;;;9.45;59.90;101980.34;12245215;19;19918;-82
2023/04/17 05:32:32;;;;;;;;;;;11.00;57.10;;;9.67;59.78;102024.88;12246780;19;19953;-83
2023/04/17 05:36:41;;;;;;;;;;;11.00;57.10;;;9.73;59.63;102029.03;12247328;19;19925;-82
2023/04/17 05:40:43;;;;;;;;;;;11.00;57.30;;;9.60;59.58;102023.34;12244940;19;19922;-82
2023/04/17 05:44:45;;;;;;;;;;;11.00;57.30;;;9.51;59.54;102006.22;12246048;19;19974;-82
2023/04/17 05:48:46;;;;;;;;;;;11.00;57.60;;;9.63;59.78;102043.25;12242359;19;19924;-82
2023/04/17 05:52:48;;;;;;;;;;;11.00;57.50;;;9.52;59.91;102026.16;12246938;19;20261;-82
2023/04/17 05:56:51;;;;;;;;;;;10.90;57.40;;;9.35;59.63;102001.50;12244815;19;19927;-82
2023/04/17 06:00:54;;;;;;;;;;;10.90;57.50;;;9.46;59.94;102020.28;12245466;19;20242;-82
2023/04/17 06:04:57;;;;;;;;;;;10.90;57.40;;;9.54;59.82;102036.56;12244711;19;19915;-82
2023/04/17 06:08:59;;;;;;;;;;;10.90;57.40;;;9.47;59.92;102027.22;12242660;19;20238;-82
2023/04/17 06:13:01;;;;;;;;;;;10.90;57.40;;;9.60;59.96;102046.81;12245318;19;19927;-82
2023/04/17 06:17:03;;;;;;;;;;;11.00;57.50;;;9.43;59.88;102015.19;12243216;19;19919;-82
2023/04/17 06:21:06;;;;;;;;;;;11.00;57.60;;;9.40;59.99;102007.44;12243640;19;19914;-82
2023/04/17 06:25:08;;;;;;;;;;;11.00;57.60;;;9.66;59.76;102054.44;12244658;19;19915;-82
2023/04/17 06:29:11;;;;;;;;;;;11.00;57.70;;;9.64;59.90;102056.25;12240095;19;19918;-83
2023/04/17 06:33:13;;;;;;;;;;;11.00;57.70;;;9.68;60.14;102064.84;12244900;19;19953;-82
2023/04/17 06:37:15;;;;;;;;;;;11.00;57.90;;;9.69;59.94;102070.03;12242126;19;19911;-82
2023/04/17 06:41:17;;;;;;;;;;;11.10;57.70;;;9.73;60.02;102068.16;12243614;19;19926;-82
2023/04/17 06:45:18;;;;;;;;;;;11.10;57.70;;;9.79;59.98;102069.72;12243587;19;19915;-82
2023/04/17 06:49:20;;;;;;;;;;;11.20;57.70;;;9.85;59.88;102074.75;12239862;19;19918;-82
2023/04/17 06:53:22;;;;;;;;;;;11.20;57.30;;;9.81;60.02;102075.78;12247565;19;19915;-82
2023/04/17 06:57:23;;;;;;;;;;;11.30;57.90;;;9.60;60.14;102044.19;12253291;19;20325;-82
2023/04/17 07:01:26;;;;;;;;;;;11.30;57.70;;;9.89;60.01;102089.44;12256189;19;20271;-81
2023/04/17 07:05:28;;;;;;;;;;;11.30;57.80;;;9.88;60.23;102090.31;12256310;19;19931;-82
2023/04/17 07:09:30;;;;;;;;;;;11.30;57.80;;;9.92;60.11;102102.38;12257183;19;19923;-82
2023/04/17 07:13:32;;;;;;;;;;;11.40;57.60;;;9.91;60.19;102100.66;12254307;19;20324;-82
2023/04/17 07:17:33;;;;;;;;;;;11.40;58.30;;;9.93;60.12;102104.06;12250753;19;19918;-82
2023/04/17 07:21:35;;;;;;;;;;;11.40;58.00;;;9.98;60.29;102107.41;12254489;19;20261;-82
2023/04/17 07:25:36;;;;;;;;;;;11.40;57.80;;;9.97;60.29;102097.88;12253572;19;19917;-82
2023/04/17 07:29:38;;;;;;;;;;;11.40;57.70;;;9.97;60.12;102096.13;12254639;19;19940;-82
2023/04/17 07:33:40;;;;;;;;;;;11.40;57.70;;;10.09;60.09;102112.28;12252620;19;19911;-82
2023/04/17 07:37:41;;;;;;;;;;;11.50;57.70;;;10.08;60.27;102115.81;12253521;19;19915;-83
2023/04/17 07:41:43;;;;;;;;;;;11.50;57.80;;;9.90;60.26;102085.91;12254597;19;19918;-83
2023/04/17 07:45:45;;;;;;;;;;;11.50;57.70;;;10.22;60.27;102131.06;12254086;19;19922;-84
2023/04/17 07:49:47;;;;;;;;;;;11.60;57.60;;;10.08;60.26;102105.38;12254464;19;19911;-83
2023/04/17 07:53:49;;;;;;;;;;;11.60;57.60;;;9.95;60.21;102076.19;12253429;19;19934;-83
2023/04/17 07:57:51;;;;;;;;;;;11.60;57.50;;;10.31;60.29;102131.63;12252241;19;19945;-83
2023/04/17 08:01:53;;;;;;;;;;;11.70;57.60;;;10.35;60.24;102132.41;12252576;19;19919;-83
2023/04/17 08:05:55;;;;;;;;;;;11.80;57.60;;;10.38;60.20;102132.31;12248822;19;19915;-85
2023/04/17 08:09:56;;;;;;;;;;;11.80;58.00;;;10.35;60.30;102132.41;12252940;19;19935;-84
2023/04/17 08:13:58;;;;;;;;;;;11.80;57.80;;;10.32;60.11;102125.53;12251117;19;19919;-84
2023/04/17 08:17:59;;;;;;;;;;;11.80;57.60;;;10.48;60.06;102153.78;12252716;19;19948;-84
2023/04/17 08:22:03;;;;;;;;;;;11.90;57.70;;;10.23;60.09;102112.72;12253203;19;19918;-83
2023/04/17 08:26:05;;;;;;;;;;;11.90;58.00;;;10.52;60.16;102151.00;12252915;19;19923;-84
2023/04/17 08:30:09;;;;;;;;;;;11.90;57.80;;;10.51;60.33;102141.47;12250965;19;19986;-84
2023/04/17 08:34:10;;;;;;;;;;;11.90;57.60;;;10.43;60.28;102135.63;12251561;19;19943;-84
2023/04/17 08:38:13;;;;;;;;;;;12.00;58.10;;;10.55;60.04;102152.66;12249129;19;19961;-83
2023/04/17 08:42:15;;;;;;;;;;;12.00;57.50;;;10.64;60.22;102149.78;12251746;19;19919;-84
2023/04/17 08:46:21;;;;;;;;;;;12.10;57.50;;;10.68;60.23;102156.59;12248406;19;20457;-83
2023/04/17 08:50:22;;;;;;;;;;;12.10;57.90;;;10.60;60.30;102151.59;12252718;19;19929;-84
2023/04/17 08:54:24;;;;;;;;;;;12.10;57.60;;;10.46;60.23;102125.09;12248440;19;19911;-83
2023/04/17 08:58:30;;;;;;;;;;;12.10;57.60;;;10.68;60.33;102166.19;12249496;19;20371;-84
2023/04/17 09:02:32;;;;;;;;;;;12.10;57.40;;;10.50;60.32;102131.91;12248450;19;19930;-83
2023/04/17 09:06:53;;;;;;;;;;;12.10;57.40;;;10.80;60.34;102174.50;12248862;19;19986;-83
2023/04/17 09:10:54;;;;;;;;;;;12.20;57.50;;;10.80;60.33;102165.78;12249638;19;19911;-84
2023/04/17 09:14:56;;;;;;;;;;;12.20;57.50;;;10.86;60.43;102173.44;12251199;19;19971;-84
2023/04/17 09:19:05;;;;;;;;;;;12.20;57.40;;;10.92;60.39;102170.59;12239845;19;19931;-83
2023/04/17 09:23:07;;;;;;;;;;;12.30;57.60;;;10.96;60.24;102182.66;12244798;19;19914;-83
2023/04/17 09:27:38;;;;;;;;;;;12.40;57.50;;;11.01;60.22;102174.66;12243533;19;19907;-82
2023/04/17 09:31:41;;;;;;;;;;;12.40;57.40;;;11.02;60.38;102172.00;12243528;19;19927;-83
2023/04/17 09:35:43;;;;;;;;;;;12.50;57.50;;;11.11;60.31;102178.69;12242761;19;20323;-84
2023/04/17 09:39:59;;;;;;;;;;;12.50;57.50;;;11.18;60.57;102184.53;12244481;19;19926;-83
2023/04/17 09:44:04;;;;;;;;;;;12.60;57.50;;;11.30;60.41;102165.81;12245589;19;20252;-83
2023/04/17 09:48:10;;;;;;;;;;;12.70;57.70;;;11.28;60.34;102173.72;12241635;19;19951;-84
2023/04/17 09:52:12;;;;;;;;;;;12.70;57.20;;;11.32;60.63;102163.16;12244435;19;20279;-84
2023/04/17 09:56:14;;;;;;;;;;;12.80;57.20;;;11.39;60.32;102170.72;12245289;19;20346;-82
2023/04/17 10:00:20;;;;;;;;;;;12.90;56.90;;;11.43;60.26;102176.72;12245624;19;19939;-83
2023/04/17 10:04:22;;;;;;;;;;;12.90;56.90;;;11.45;60.41;102173.13;12243589;19;19907;-82
2023/04/17 10:08:23;;;;;;;;;;;12.90;57.00;;;11.43;60.19;102172.34;12241600;19;20008;-83
2023/04/17 10:12:25;;;;;;;;;;;12.90;57.00;;;11.48;60.35;102180.03;12244841;19;19915;-83
2023/04/17 10:16:37;;;;;;;;;;;12.90;56.80;;;11.53;60.30;102183.34;12242161;19;19910;-82
2023/04/17 10:20:43;;;;;;;;;;;13.00;57.00;;;11.38;60.14;102162.94;12242908;19;19911;-83
2023/04/17 10:24:52;;;;;;;;;;;12.90;56.30;;;11.48;60.17;102187.88;12243146;19;19986;-84
2023/04/17 10:28:56;;;;;;;;;;;12.90;55.80;;;11.08;59.92;102134.34;12246009;19;19930;-83
2023/04/17 10:33:19;;;;;;;;;;;12.90;55.90;;;11.37;60.23;102182.13;12257297;19;19926;-83
2023/04/17 10:37:43;;;;;;;;;;;12.80;56.10;;;11.31;60.20;102188.44;12253559;19;19925;-83
2023/04/17 10:42:04;;;;;;;;;;;12.80;56.00;;;11.28;59.99;102180.72;12253677;19;19911;-83
2023/04/17 10:46:13;;;;;;;;;;;12.70;56.20;;;11.12;60.16;102161.22;12254702;19;19932;-83
2023/04/17 10:50:26;;;;;;;;;;;12.70;56.30;;;11.16;60.05;102173.31;12252742;19;19950;-82
2023/04/17 10:54:31;;;;;;;;;;;12.70;56.20;;;11.26;60.20;102186.00;12255583;19;19922;-82
2023/04/17 10:58:37;;;;;;;;;;;12.70;56.40;;;11.24;60.18;102182.59;12249938;19;20285;-82
2023/04/17 11:02:38;;;;;;;;;;;12.70;56.50;;;11.03;60.18;102139.72;12256770;19;19922;-83
2023/04/17 11:06:40;;;;;;;;;;;12.70;56.50;;;11.29;60.08;102179.81;12253647;19;19982;-82
2023/04/17 11:10:42;;;;;;;;;;;12.70;56.50;;;11.28;60.20;102178.09;12248907;19;19922;-83
2023/04/17 11:14:44;;;;;;;;;;;12.50;56.50;;;11.28;60.16;102172.88;12255162;19;19923;-83
2023/04/17 11:18:46;;;;;;;;;;;12.80;56.50;;;11.14;60.00;102154.19;12249587;19;20364;-82
2023/04/17 11:22:48;;;;;;;;;;;12.80;56.40;;;11.39;60.17;102193.41;12255198;19;19911;-83
2023/04/17 11:26:49;;;;;;;;;;;12.80;56.10;;;11.14;59.98;102148.97;12253594;19;19923;-83
2023/04/17 11:30:51;;;;;;;;;;;12.80;56.20;;;11.28;60.15;102188.56;12252455;19;20404;-82
2023/04/17 11:34:55;;;;;;;;;;;12.70;56.20;;;11.25;60.18;102184.28;12253108;19;19932;-83
2023/04/17 11:38:57;;;;;;;;;;;12.80;56.40;;;11.26;59.87;102190.34;12246768;19;19911;-82
2023/04/17 11:43:08;;;;;;;;;;;12.80;56.10;;;11.32;59.97;102212.84;12246368;19;19930;-82
2023/04/17 11:47:10;;;;;;;;;;;12.80;55.90;;;10.97;60.12;102165.22;12249948;19;19939;-82
2023/04/17 11:51:16;;;;;;;;;;;12.70;56.10;;;11.14;60.05;102190.78;12251648;19;19944;-82
2023/04/17 11:55:17;;;;;;;;;;;12.70;56.20;;;11.25;60.11;102220.03;12252845;19;20317;-82
2023/04/17 11:59:38;;;;;;;;;;;12.70;56.10;;;11.27;60.05;102226.94;12247379;19;19915;-83
2023/04/17 12:03:39;;;;;;;;;;;12.70;56.20;;;11.26;60.11;102220.00;12246764;19;20314;-82
2023/04/17 12:07:41;;;;;;;;;;;12.60;56.20;;;11.28;60.12;102222.56;12248295;19;19919;-82
2023/04/17 12:11:43;;;;;;;;;;;12.70;56.40;;;11.19;60.07;102202.81;12250035;19;20411;-85
2023/04/17 12:15:44;;;;;;;;;;;12.60;56.40;;;11.34;60.05;102226.72;12252702;19;19918;-84
2023/04/17 12:19:46;;;;;;;;;;;12.70;56.50;;;11.38;60.04;102234.41;12253232;19;19919;-82
2023/04/17 12:23:48;;;;;;;;;;;12.70;56.50;;;11.25;59.91;102215.66;12250707;19;19910;-82
2023/04/17 12:27:49;;;;;;;;;;;12.70;56.30;;;11.29;59.93;102226.91;12247981;19;19932;-82
2023/04/17 12:31:51;;;;;;;;;;;12.70;56.50;;;11.27;59.76;102229.53;12250081;19;19911;-82
2023/04/17 12:35:52;;;;;;;;;;;12.70;56.80;;;11.01;59.90;102204.25;12249922;19;20225;-83
2023/04/17 12:39:54;;;;;;;;;;;12.70;56.50;;;11.03;59.82;102206.84;12250025;19;20261;-82
2023/04/17 12:43:58;;;;;;;;;;;12.60;56.40;;;10.94;60.03;102200.16;12251624;19;19989;-82
2023/04/17 12:48:00;;;;;;;;;;;12.60;56.60;;;11.15;59.99;102229.97;12247641;19;20329;-82
2023/04/17 12:52:02;;;;;;;;;;;12.60;56.70;;;10.91;60.16;102200.28;12248606;19;20608;-83
2023/04/17 12:56:04;;;;;;;;;;;12.60;56.80;;;10.93;59.82;102193.22;12248696;19;19953;-82
2023/04/17 13:00:07;;;;;;;;;;;12.60;56.90;;;11.20;59.91;102227.19;12250054;19;20329;-82
2023/04/17 13:04:09;;;;;;;;;;;12.60;56.90;;;11.26;59.96;102237.44;12250314;19;19918;-82
2023/04/17 13:08:13;;;;;;;;;;;12.60;56.90;;;11.22;60.14;102226.22;12245675;19;20348;-83
2023/04/17 13:12:15;;;;;;;;;;;12.60;57.00;;;11.37;60.04;102242.28;12249686;19;20313;-83
2023/04/17 13:16:17;;;;;;;;;;;12.70;57.10;;;11.34;59.88;102235.44;12247478;19;19907;-83
2023/04/17 13:20:18;;;;;;;;;;;12.70;56.90;;;11.42;60.02;102243.88;12248207;19;19942;-83
2023/04/17 13:24:20;;;;;;;;;;;12.70;57.00;;;11.12;59.98;102187.38;12248809;19;20286;-82
2023/04/17 13:28:21;;;;;;;;;;;12.70;56.90;;;11.34;60.06;102235.44;12244190;19;19925;-82
2023/04/17 13:32:23;;;;;;;;;;;12.70;57.00;;;11.43;59.76;102239.50;12247854;19;19911;-82
2023/04/17 13:36:24;;;;;;;;;;;12.70;57.00;;;11.30;59.91;102225.97;12246797;19;20273;-84
2023/04/17 13:40:26;;;;;;;;;;;12.80;57.00;;;11.41;59.84;102242.16;12247583;19;19932;-82
2023/04/17 13:44:28;;;;;;;;;;;12.80;57.00;;;11.29;60.06;102216.44;12248770;19;20003;-82
2023/04/17 13:48:29;;;;;;;;;;;12.80;57.10;;;11.34;59.79;102230.22;12247641;19;19923;-83
2023/04/17 13:52:31;;;;;;;;;;;12.80;57.00;;;11.23;59.75;102208.78;12248600;19;19926;-82
2023/04/17 13:56:32;;;;;;;;;;;12.80;57.00;;;11.37;59.89;102230.09;12250394;19;19915;-82
2023/04/17 14:00:33;;;;;;;;;;;12.80;57.10;;;11.44;59.93;102252.50;12247836;19;19937;-84
2023/04/17 14:04:35;;;;;;;;;;;12.80;57.00;;;11.30;59.87;102228.59;12244712;19;19961;-81
2023/04/17 14:08:37;;;;;;;;;;;12.80;57.20;;;11.23;59.83;102216.63;12241843;19;19923;-82
2023/04/17 14:12:40;;;;;;;;;;;12.70;57.10;;;11.12;59.94;102197.81;12244797;19;20321;-82
2023/04/17 14:16:47;;;;;;;;;;;12.70;57.20;;;11.34;59.96;102245.91;12245462;19;19922;-85
2023/04/17 14:20:51;;;;;;;;;;;12.70;57.40;;;11.29;60.02;102238.19;12247446;19;19962;-81
2023/04/17 14:24:52;;;;;;;;;;;12.70;57.50;;;11.35;59.94;102228.44;12246562;19;20337;-85
2023/04/17 14:28:54;;;;;;;;;;;12.70;57.50;;;11.22;60.01;102212.31;12243782;19;19932;-84
2023/04/17 14:32:55;;;;;;;;;;;12.70;57.70;;;11.37;59.87;102252.75;12246047;19;19933;-84
2023/04/17 14:36:57;;;;;;;;;;;12.70;57.80;;;11.29;59.91;102237.34;12244894;19;19923;-83
2023/04/17 14:40:58;;;;;;;;;;;12.70;57.60;;;11.24;59.89;102228.81;12245188;19;19930;-84
2023/04/17 14:44:59;;;;;;;;;;;12.70;57.50;;;11.13;59.72;102220.47;12247109;19;19915;-81
2023/04/17 14:49:01;;;;;;;;;;;12.60;57.60;;;11.23;59.92;102233.19;12245648;19;20252;-84
2023/04/17 14:53:03;;;;;;;;;;;12.60;57.40;;;10.95;60.05;102194.03;12247286;19;19950;-83
2023/04/17 14:57:05;;;;;;;;;;;12.60;57.40;;;11.26;59.93;102237.44;12244232;19;20299;-84
2023/04/17 15:01:06;;;;;;;;;;;12.60;57.50;;;10.97;60.02;102183.53;12246081;19;19935;-84
2023/04/17 15:05:08;;;;;;;;;;;12.60;57.80;;;11.24;59.89;102220.97;12245570;19;19977;-84
2023/04/17 15:09:10;;;;;;;;;;;12.60;57.60;;;11.26;60.08;102226.97;12242230;19;19919;-84
2023/04/17 15:13:11;;;;;;;;;;;12.60;57.60;;;11.28;60.06;102227.78;12245232;19;19915;-84
2023/04/17 15:17:12;;;;;;;;;;;12.60;57.60;;;11.37;59.86;102239.69;12250385;19;19922;-84
2023/04/17 15:21:25;;;;;;;;;;;12.60;57.50;;;11.38;59.87;102237.03;12244498;19;19927;-84
2023/04/17 15:25:54;;;;;;;;;;;12.70;57.50;;;10.90;59.89;102156.72;12251641;19;19960;-84
2023/04/17 15:29:55;;;;;;;;;;;12.50;57.50;;;11.38;59.86;102226.56;12253423;19;19915;-84
2023/04/17 15:33:57;;;;;;;;;;;12.70;57.50;;;11.39;60.03;102228.25;12249500;19;20343;-83
2023/04/17 15:37:58;;;;;;;;;;;12.70;57.70;;;11.33;59.97;102217.16;12248340;19;19986;-83
2023/04/17 15:41:59;;;;;;;;;;;12.70;57.50;;;11.43;59.96;102244.72;12254101;19;19919;-84
2023/04/17 15:46:02;;;;;;;;;;;12.70;57.40;;;11.41;59.94;102239.53;12254353;19;19911;-83
2023/04/17 15:50:04;;;;;;;;;;;12.70;57.40;;;11.36;59.92;102230.13;12252395;19;20329;-83
2023/04/17 15:54:17;;;;;;;;;;;12.70;57.40;;;11.36;59.79;102228.38;12253316;19;19926;-83
2023/04/17 15:58:18;;;;;;;;;;;12.70;57.40;;;11.24;59.95;102208.72;12249117;19;19987;-84
2023/04/17 16:02:20;;;;;;;;;;;12.70;57.40;;;11.33;59.98;102222.41;12254205;19;19930;-84
2023/04/17 16:06:22;;;;;;;;;;;12.70;57.40;;;11.23;59.86;102200.94;12249906;19;19944;-83
2023/04/17 16:10:25;;;;;;;;;;;12.60;57.40;;;11.29;60.00;102217.28;12250992;19;19914;-86
2023/04/17 16:14:26;;;;;;;;;;;12.70;57.40;;;11.04;59.82;102183.28;12248324;19;19919;-83
2023/04/17 16:18:28;;;;;;;;;;;12.70;57.40;;;11.21;59.90;102216.69;12245914;19;19918;-82
2023/04/17 16:22:30;;;;;;;;;;;12.70;57.50;;;11.36;60.02;102246.69;12239379;19;19918;-82
2023/04/17 16:26:32;;;;;;;;;;;12.70;57.50;;;10.94;59.82;102181.03;12237206;19;19963;-83
2023/04/17 16:31:20;;;;;;;;;;;12.60;57.50;;;11.30;59.95;102239.06;12187659;19;19923;-84
2023/04/17 16:35:24;;;;;;;;;;;12.60;57.40;;;11.26;59.87;102243.53;12232636;19;19919;-84
2023/04/17 16:39:26;;;;;;;;;;;12.60;57.30;;;11.29;60.10;102237.34;12248912;19;19935;-85
2023/04/17 16:43:31;;;;;;;;;;;12.50;57.40;;;11.27;60.01;102239.16;12241826;19;19930;-83
2023/04/17 16:47:37;;;;;;;;;;;12.60;57.40;;;11.29;60.00;102247.81;12241588;19;20269;-83
2023/04/17 16:51:42;;;;;;;;;;;12.60;57.40;;;11.28;60.06;102248.69;12246995;19;19983;-84
2023/04/17 16:55:44;;;;;;;;;;;12.40;57.40;;;11.20;59.98;102240.25;12249985;19;19934;-84
2023/04/17 16:59:46;;;;;;;;;;;12.60;57.50;;;10.87;59.78;102190.81;12247381;19;19930;-82
2023/04/17 17:03:48;;;;;;;;;;;12.60;57.40;;;11.09;59.99;102224.94;12243615;19;19919;-82
2023/04/17 17:07:50;;;;;;;;;;;12.60;57.60;;;10.68;59.88;102160.97;12247725;19;19922;-83
2023/04/17 17:11:52;;;;;;;;;;;12.50;57.40;;;11.22;60.00;102255.00;12243157;19;20341;-83
2023/04/17 17:15:55;;;;;;;;;;;12.50;57.40;;;10.87;59.94;102203.03;12247461;19;19922;-83
2023/04/17 17:19:59;;;;;;;;;;;12.60;57.50;;;10.93;59.92;102208.03;12245143;19;19932;-82
2023/04/17 17:24:01;;;;;;;;;;;12.50;57.60;;;11.22;59.89;102269.84;12246285;19;19930;-84
2023/04/17 17:28:03;;;;;;;;;;;12.50;57.60;;;10.95;60.04;102220.16;12236261;19;19930;-82
2023/04/17 17:32:04;;;;;;;;;;;12.50;57.60;;;11.18;59.95;102279.53;12243793;19;19911;-83
2023/04/17 17:36:07;;;;;;;;;;;12.50;57.50;;;10.98;60.00;102237.50;12248903;19;19925;-83
2023/04/17 17:40:09;;;;;;;;;;;12.50;57.50;;;10.53;59.96;102168.41;12247431;19;19922;-83
2023/04/17 17:44:11;;;;;;;;;;;12.50;57.60;;;10.80;59.85;102212.81;12246350;19;19919;-82
2023/04/17 17:48:19;;;;;;;;;;;12.30;57.50;;;10.78;59.78;102212.88;12249495;19;19919;-82
2023/04/17 17:52:21;;;;;;;;;;;12.50;57.60;;;10.73;59.81;102206.09;12245132;19;19982;-83
2023/04/17 17:56:23;;;;;;;;;;;12.50;57.60;;;10.89;59.83;102233.44;12248295;19;19919;-83
2023/04/17 18:00:38;;;;;;;;;;;12.50;57.70;;;11.11;59.94;102269.34;12241292;19;19919;-82
2023/04/17 18:05:46;;;;;;;;;;;;;;;;;;;;;
2023/04/17 18:09:52;;;;;;;;;;;12.40;57.70;;;10.77;59.96;102218.97;12227341;19;19995;-83
2023/04/17 18:13:57;;;;;;;;;;;12.40;57.90;;;11.09;59.93;102279.84;12237399;19;20017;-83
2023/04/17 18:18:00;;;;;;;;;;;12.40;57.90;;;10.67;59.98;102217.59;12240167;19;19932;-83